Flight Track Log - Related Links

Times and Time Zones

All times are in EST time to prevent confusion due to time zone crossing. See the LYC499 flight status page for this flight to view local times or setup timezone preferences in your user account.

Time Position Orientation Groundspeed Altitude Reporting Facility
EST Latitude Longitude Course Direction KTS MPH feet Rate Location/Type
Tue 08:09:22 PM 19.2994 -69.6389 231° Southwest 24,000  Level Miami Center
Tue 08:10:22 PM 19.0039 -69.9161 335° Northwest 15,500 -3,700 Descending Miami Center
Tue 08:11:22 PM 19.0636 -69.9461 323° Northwest 262 302 16,600 1,000 Climbing Miami Center
Tue 08:12:22 PM 19.1131 -69.9853 318° Northwest 242 278 17,500 850 Climbing Miami Center
Tue 08:13:22 PM 19.1608 -70.0311 322° Northwest 232 267 18,300 807 Climbing Miami Center
Tue 08:14:21 PM 19.2128 -70.0747 324° Northwest 232 267 19,100 807 Climbing Miami Center
Tue 08:15:21 PM 19.2642 -70.1139 319° Northwest 232 267 19,900 800 Climbing Miami Center
Tue 08:16:21 PM 19.3142 -70.1597 323° Northwest 237 273 20,700 750 Climbing Miami Center
Tue 08:17:21 PM 19.3681 -70.2033 318° Northwest 237 273 21,400 694 Climbing Miami Center
Tue 08:18:22 PM 19.4158 -70.2494 319° Northwest 237 273 22,100 595 Climbing Miami Center
Tue 08:19:22 PM 19.4656 -70.2953 321° Northwest 237 273 22,600 550 Climbing Miami Center
Tue 08:20:22 PM 19.5194 -70.3411 323° Northwest 242 278 23,200 500 Climbing Miami Center
Tue 08:21:22 PM 19.5756 -70.3867 321° Northwest 242 278 23,600 400 Climbing Miami Center
Tue 08:22:22 PM 19.6294 -70.4328 320° Northwest 247 284 24,000 250 Climbing Miami Center
Tue 08:23:22 PM 19.6878 -70.4850 321° Northwest 253 291 24,100  Climbing Miami Center
Tue 08:24:22 PM 19.7483 -70.5372 322° Northwest 268 308 24,000 -50 Descending Miami Center
Tue 08:25:22 PM 19.8128 -70.5917 322° Northwest 287 330 24,000  Level Miami Center
Tue 08:26:22 PM 19.8753 -70.6439 319° Northwest 287 330 24,000  Level Miami Center
Tue 08:27:22 PM 19.9403 -70.7047 322° Northwest 298 343 24,000  Level Miami Center
Tue 08:28:22 PM 20.0050 -70.7592 322° Northwest 298 343 24,000  Level Miami Center
Tue 08:29:22 PM 20.0739 -70.8158 319° Northwest 298 343 24,000  Level Miami Center
Tue 08:30:22 PM 20.1386 -70.8747 321° Northwest 303 349 24,000  Level Miami Center
Tue 08:31:22 PM 20.2033 -70.9314 321° Northwest 303 349 24,000  Level Miami Center
Tue 08:32:22 PM 20.2614 -70.9819 320° Northwest 303 349 24,000  Level Miami Center
Tue 08:33:21 PM 20.3261 -71.0389 320° Northwest 303 349 24,000  Level Miami Center
Tue 08:34:21 PM 20.3928 -71.0981 315° West 303 349 24,000  Level Miami Center
Tue 08:35:21 PM 20.4514 -71.1597 313° West 298 343 24,000  Level Miami Center
Tue 08:36:21 PM 20.5058 -71.2217 311° West 298 343 24,000  Level Miami Center
Tue 08:37:22 PM 20.5603 -71.2881 313° West 298 343 24,000  Level Miami Center
Tue 08:38:22 PM 20.6167 -71.3522 311° West 298 343 24,000  Level Miami Center
Tue 08:39:22 PM 20.6714 -71.4186 313° West 303 349 24,000  Level Miami Center
Tue 08:40:21 PM 20.7256 -71.4808 313° West 298 343 24,000  Level Miami Center
Tue 08:41:21 PM 20.7819 -71.5450 311° West 298 343 24,000  Level Miami Center
Tue 08:42:21 PM 20.8364 -71.6117 312° West 298 343 24,000  Level Miami Center
Tue 08:43:22 PM 20.8908 -71.6761 311° West 298 343 24,000  Level Miami Center
Tue 08:44:22 PM 20.9428 -71.7408 313° West 298 343 24,000  Level Miami Center
Tue 08:45:21 PM 20.9992 -71.8053 313° West 298 343 24,000  Level Miami Center
Tue 08:46:21 PM 21.0533 -71.8678 311° West 293 337 24,000  Level Miami Center
Tue 08:47:21 PM 21.1078 -71.9344 313° West 293 337 24,000  Level Miami Center
Tue 08:48:21 PM 21.1642 -71.9992 311° West 293 337 24,000  Level Miami Center
Tue 08:49:21 PM 21.2161 -72.0642 313° West 293 337 24,000  Level Miami Center
Tue 08:50:22 PM 21.2725 -72.1289 310° West 293 337 24,000  Level Miami Center
Tue 08:51:21 PM 21.3244 -72.1961 314° West 293 337 24,000  Level Miami Center
Tue 08:52:22 PM 21.3828 -72.2608 312° West 293 337 24,000  Level Miami Center
Tue 08:53:21 PM 21.4369 -72.3258 312° West 293 337 24,000  Level Miami Center
Tue 08:54:22 PM 21.4975 -72.3975 311° West 293 337 24,000  Level Miami Center
Tue 08:55:22 PM 21.5517 -72.4647 311° West 298 343 24,000  Level Miami Center
Tue 08:56:22 PM 21.6056 -72.5322 311° West 298 343 24,000  Level Miami Center
Tue 08:57:22 PM 21.6575 -72.5975 313° West 298 343 24,000  Level Miami Center
Tue 08:58:22 PM 21.7136 -72.6628 312° West 298 343 24,000  Level Miami Center
Tue 08:59:21 PM 21.7567 -72.7150 312° West 293 337 24,000  Level Miami Center
Tue 09:00:22 PM 21.8214 -72.7933 310° West 293 337 24,000  Level Miami Center
Tue 09:01:22 PM 21.8733 -72.8589 313° West 293 337 24,000  Level Miami Center
Tue 09:02:21 PM 21.9294 -72.9244 313° West 293 337 24,000  Level Miami Center
Tue 09:03:21 PM 21.9853 -72.9897 309° West 293 337 24,000  Level Miami Center
Tue 09:04:22 PM 22.0372 -73.0578 312° West 293 337 24,000  Level Miami Center
Tue 09:05:22 PM 22.0908 -73.1211 311° West 293 337 24,000  Level Miami Center
Tue 09:06:22 PM 22.1447 -73.1892 311° West 293 337 24,000  Level Miami Center
Tue 09:07:22 PM 22.1964 -73.2525 310° West 293 337 24,000  Level Miami Center
Tue 09:08:22 PM 22.2503 -73.3208 313° West 293 337 24,000  Level Miami Center
Tue 09:09:22 PM 22.3058 -73.3842 312° West 298 343 24,000  Level Miami Center
Tue 09:10:22 PM 22.3617 -73.4503 310° West 298 343 24,000  Level Miami Center
Tue 09:11:22 PM 22.4111 -73.5139 312° West 293 337 24,000  Level Miami Center
Tue 09:12:22 PM 22.4669 -73.5800 311° West 293 337 24,000  Level Miami Center
Tue 09:13:22 PM 22.5183 -73.6439 313° West 293 337 24,000  Level Miami Center
Tue 09:14:21 PM 22.5742 -73.7078 309° West 293 337 24,000  Level Miami Center
Tue 09:15:21 PM 22.6233 -73.7739 312° West 293 337 24,000  Level Miami Center
Tue 09:16:22 PM 22.6769 -73.8381 310° West 293 337 24,000  Level Miami Center
Tue 09:17:22 PM 22.7283 -73.9044 312° West 293 337 24,000  Level Miami Center
Tue 09:18:22 PM 22.7819 -73.9683 311° West 293 337 24,000  Level Miami Center
Tue 09:19:21 PM 22.8333 -74.0328 310° West 293 337 24,000  Level Miami Center
Tue 09:20:22 PM 22.8844 -74.0992 311° West 293 337 24,000  Level Miami Center
Tue 09:21:22 PM 22.9358 -74.1633 312° West 288 331 24,000  Level Miami Center
Tue 09:22:21 PM 22.9892 -74.2278 310° West 288 331 24,000  Level Miami Center
Tue 09:23:21 PM 23.0364 -74.2900 312° West 283 326 24,000  Level Miami Center
Tue 09:24:21 PM 23.0897 -74.3544 312° West 283 326 24,000  Level Miami Center
Tue 09:25:21 PM 23.1408 -74.4167 310° West 283 326 24,000  Level Miami Center
Tue 09:26:22 PM 23.1897 -74.4811 313° West 278 320 24,000  Level Miami Center
Tue 09:27:21 PM 23.2408 -74.5414 310° West 278 320 24,000  Level Miami Center
Tue 09:28:21 PM 23.2836 -74.5972 310° West 278 320 24,000  Level Miami Center
Tue 09:29:22 PM 23.3325 -74.6597 313° West 278 320 24,000  Level Miami Center
Tue 09:30:22 PM 23.3856 -74.7219 310° West 278 320 24,000  Level Miami Center
Tue 09:31:22 PM 23.4325 -74.7825 311° West 278 320 24,000  Level Miami Center
Tue 09:32:22 PM 23.4814 -74.8428 311° West 278 320 24,000  Level Miami Center
Tue 09:33:21 PM 23.5217 -74.8942 311° West 278 320 24,000  Level Miami Center
Tue 09:34:22 PM 23.5811 -74.9681 312° West 278 320 24,000  Level Miami Center
Tue 09:35:21 PM 23.6217 -75.0175 310° West 278 320 24,000  Level Miami Center
Tue 09:36:22 PM 23.6811 -75.0936 311° West 278 320 24,000  Level Miami Center
Tue 09:37:21 PM 23.7319 -75.1564 309° West 278 320 24,000  Level Miami Center
Tue 09:38:22 PM 23.7869 -75.2308 312° West 278 320 24,000  Level Miami Center
Tue 09:39:21 PM 23.8272 -75.2803 310° West 278 320 24,000  Level Miami Center
Tue 09:40:22 PM 23.8867 -75.3567 312° West 278 320 24,000  Level Miami Center
Tue 09:41:21 PM 23.9394 -75.4197 309° West 278 320 24,000  Level Miami Center
Tue 09:42:22 PM 23.9881 -75.4850 312° West 278 320 24,000  Level Miami Center
Tue 09:43:22 PM 24.0408 -75.5483 310° West 278 320 24,000  Level Miami Center
Tue 09:44:22 PM 24.0894 -75.6114 311° West 278 320 24,000  Level Miami Center
Tue 09:45:21 PM 24.1403 -75.6747 309° West 278 320 24,000  Level Miami Center
Tue 09:46:22 PM 24.1889 -75.7403 310° West 278 320 24,000  Level Miami Center
Tue 09:47:22 PM 24.2372 -75.8036 311° West 278 320 24,000  Level Miami Center
Tue 09:48:21 PM 24.2881 -75.8669 311° West 278 320 24,000  Level Miami Center
Tue 09:49:22 PM 24.3364 -75.9283 311° West 278 320 24,000  Level Miami Center
Tue 09:50:21 PM 24.3869 -75.9917 310° West 278 320 24,000  Level Miami Center
Tue 09:51:22 PM 24.4353 -76.0553 311° West 278 320 24,000  Level Miami Center
Tue 09:52:21 PM 24.4836 -76.1167 309° West 278 320 24,000  Level Miami Center
Tue 09:53:21 PM 24.5322 -76.1825 310° West 278 320 24,000  Level Miami Center
Tue 09:54:21 PM 24.5806 -76.2464 310° West 278 320 24,000  Level Miami Center
Tue 09:55:21 PM 24.6225 -76.3011 309° West 278 320 24,000  Level Miami Center
Tue 09:56:22 PM 24.6686 -76.3647 312° West 273 314 24,000  Level Miami Center
Tue 09:57:21 PM 24.7192 -76.4264 310° West 273 314 24,000  Level Miami Center
Tue 09:58:21 PM 24.7672 -76.4903 310° West 273 314 24,000  Level Miami Center
Tue 09:59:21 PM 24.8156 -76.5542 312° West 278 320 24,000  Level Miami Center
Tue 10:00:21 PM 24.8658 -76.6161 310° West 278 320 24,000  Level Miami Center
Tue 10:01:22 PM 24.9139 -76.6800 312° West 278 320 24,000  Level Miami Center
Tue 10:02:22 PM 24.9642 -76.7419 310° West 278 320 24,000  Level Miami Center
Tue 10:03:22 PM 25.0103 -76.8036 310° West 278 320 24,000  Level Miami Center
Tue 10:04:21 PM 25.0603 -76.8703 312° West 278 320 24,000  Level Miami Center
Tue 10:05:21 PM 25.1083 -76.9300 309° West 278 320 24,000  Level Miami Center
Tue 10:06:22 PM 25.1564 -76.9967 311° West 278 320 24,000  Level Miami Center
Tue 10:07:22 PM 25.2044 -77.0586 311° West 278 320 24,000  Level Miami Center
Tue 10:08:21 PM 25.2544 -77.1231 308° West 278 320 24,000  Level Miami Center
Tue 10:09:22 PM 25.3003 -77.1875 311° West 278 320 24,000  Level Miami Center
Tue 10:10:22 PM 25.3503 -77.2519 310° West 278 320 24,000  Level Miami Center
Tue 10:11:23 PM 25.3983 -77.3142 310° West 278 320 24,000  Level Miami Center
Tue 10:12:22 PM 25.4461 -77.3767 308° West 278 320 24,000  Level Miami Center
Tue 10:13:23 PM 25.4919 -77.4411 310° West 278 320 24,000  Level Miami Center
Tue 10:14:23 PM 25.5439 -77.5106 309° West 278 320 24,000  Level Miami Center
Tue 10:15:23 PM 25.5917 -77.5753 312° West 278 320 24,000  Level Miami Center
Tue 10:16:22 PM 25.6436 -77.6403 308° West 278 320 24,000  Level Miami Center
Tue 10:17:35 PM 25.6892 -77.7050 310° West 278 320 24,000  Level Miami Center
Tue 10:18:36 PM 25.7472 -77.7817 310° West 278 320 24,000  Level Miami Center
Tue 10:19:34 PM 25.7947 -77.8444 309° West 278 320 24,000  Level Miami Center
Tue 10:20:35 PM 25.8444 -77.9117 310° West 278 320 24,000  Level Miami Center
Tue 10:21:36 PM 25.8922 -77.9744 307° West 278 320 24,000  Level Miami Center
Tue 10:22:36 PM 25.9375 -78.0419 312° West 278 320 24,000  Level Miami Center
Tue 10:23:35 PM 25.9872 -78.1025 309° West 278 320 24,000  Level Miami Center
Tue 10:24:36 PM 26.0347 -78.1678 309° West 278 320 24,000  Level Miami Center
Tue 10:25:34 PM 26.0822 -78.2331 310° West 278 320 24,000  Level Miami Center
Tue 10:26:33 PM 26.1317 -78.2983 305° West 278 320 24,000  Level Miami Center
Tue 10:27:34 PM 26.1750 -78.3661 312° West 278 320 24,000  Level Miami Center
Tue 10:28:35 PM 26.2264 -78.4292 309° West 278 320 24,000  Level Miami Center
Tue 10:29:35 PM 26.2717 -78.4925 311° West 272 313 24,000  Level Miami Center
Tue 10:30:36 PM 26.3211 -78.5558 307° West 272 313 24,000  Level Miami Center
Tue 10:31:34 PM 26.3642 -78.6189 310° West 261 300 24,000  Level Miami Center
Tue 10:32:34 PM 26.4117 -78.6822 311° West 261 300 24,000  Level Miami Center
Tue 10:33:36 PM 26.4608 -78.7456 308° West 267 307 24,000 -655 Level Miami Center
Tue 10:34:33 PM 26.5061 -78.8114 311° West 272 313 22,700 -1,475 Descending Miami Center
Tue 10:35:34 PM 26.5553 -78.8750 313° West 272 313 21,100 -1,426 Descending Miami Center
Tue 10:36:35 PM 26.6128 -78.9433 312° West 282 325 19,800 -1,180 Descending Miami Center
Tue 10:37:36 PM 26.6619 -79.0047 310° West 282 325 18,700 -1,008 Descending Miami Center
Tue 10:38:34 PM 26.7133 -79.0731 309° West 282 325 17,800 -814 Descending Miami Center
Tue 10:39:34 PM 26.7583 -79.1344 312° West 282 325 17,100 -992 Descending Miami Center
Tue 10:40:35 PM 26.8114 -79.2006 310° West 282 325 15,800 -1,377 Descending Miami Center
Tue 10:41:36 PM 26.8686 -79.2761 312° West 282 325 14,300 -1,271 Descending Miami Center
Tue 10:42:33 PM 26.9219 -79.3425 311° West 288 331 13,300 -1,017 Descending Miami Center
Tue 10:43:34 PM 26.9731 -79.4089 312° West 283 326 12,300 -992 Descending Miami Center
Tue 10:44:34 PM 27.0200 -79.4683 312° West 283 326 11,300 -942 Descending Miami Center
Tue 10:45:35 PM 27.0772 -79.5394 310° West 283 326 10,400 -942 Descending Miami Center
Tue 10:46:35 PM 27.1261 -79.6058 310° West 277 319 9,400 -864 Descending Miami Center
Tue 10:47:33 PM 27.1750 -79.6725 311° West 282 325 8,700 -655 Descending Miami Center
Tue 10:48:34 PM 27.2197 -79.7297 312° West 277 319 8,100 -829 Descending Miami Center
Tue 10:49:36 PM 27.2686 -79.7917 312° West 277 319 7,000 -1,131 Descending Miami Center
Tue 10:50:36 PM 27.3194 -79.8561 310° West 257 296 5,800 -1,322 Descending Miami Center
Tue 10:51:34 PM 27.3642 -79.9156 311° West 257 296 4,400 -1,361 Descending Miami Center
Tue 10:52:35 PM 27.4089 -79.9731 311° West 251 289 3,100 -1,140 Descending Miami Center
Tue 10:53:35 PM 27.4494 -80.0256 310° West 243 280 2,100 -595 Descending Miami Center
Tue 10:54:36 PM 27.4919 -80.0831 311° West 243 280 1,900 -50 Descending Miami Center
Tue 10:55:36 PM 27.5367 -80.1403 268° West 231 266 2,000 51 Climbing Miami Center
Tue 10:56:34 PM 27.5356 -80.1872 257° West 209 241 2,000 -51 Level Miami Center
Tue 10:57:33 PM 27.5239 -80.2453 250° West 171 197 1,900 -248 Descending Miami Center
Tue 10:58:35 PM 27.5125 -80.2803 250° West 148 170 1,500 -387 Descending Miami Center

Login

Don't have an account? Register now (free) for customized features, flight alerts, and more!